Time;durP1;ratioP1;P1;durP2;ratioP2;P2;SDS_P1;SDS_P2;PMS_P1;PMS_P2;Temp;Humidity;BMP_temperature;BMP_pressure;BME280_temperature;BME280_humidity;BME280_pressure;Samples;Min_cycle;Max_cycle;Signal;HPM_P1;HPM_P2
2021/09/10 00:02:32;;;;;;;20.15;11.57;;;23.20;50.40;;;;;;6182459;28;83343;-65
2021/09/10 00:05:32;;;;;;;20.60;10.80;;;23.10;50.40;;;;;;6183554;28;83984;-65
2021/09/10 00:08:33;;;;;;;19.90;11.65;;;23.20;50.40;;;;;;6190751;28;82817;-65
2021/09/10 00:11:33;;;;;;;17.13;10.35;;;23.20;50.30;;;;;;6184265;28;83906;-65
2021/09/10 00:14:34;;;;;;;18.83;11.75;;;23.10;50.30;;;;;;6181037;28;83063;-65
2021/09/10 00:17:34;;;;;;;21.30;11.43;;;23.20;50.40;;;;;;6180181;28;83492;-65
2021/09/10 00:20:35;;;;;;;19.50;10.80;;;23.10;50.40;;;;;;6180305;28;82955;-64
2021/09/10 00:23:35;;;;;;;20.65;12.48;;;23.10;50.30;;;;;;6174399;28;85386;-63
2021/09/10 00:26:36;;;;;;;20.50;11.60;;;23.10;50.20;;;;;;6178562;28;82879;-63
2021/09/10 00:29:36;;;;;;;18.00;11.35;;;23.10;50.20;;;;;;6180750;28;84097;-63
2021/09/10 00:32:37;;;;;;;20.27;11.55;;;23.10;50.20;;;;;;6175732;28;83114;-65
2021/09/10 00:35:37;;;;;;;23.17;11.23;;;23.10;50.30;;;;;;6179116;28;82919;-64
2021/09/10 00:38:38;;;;;;;19.92;10.68;;;23.10;50.10;;;;;;6184538;28;82944;-63
2021/09/10 00:41:38;;;;;;;20.08;11.13;;;23.00;50.00;;;;;;6178761;28;83929;-64
2021/09/10 00:44:38;;;;;;;18.67;9.85;;;23.00;50.00;;;;;;6183492;28;82976;-63
2021/09/10 00:47:39;;;;;;;19.25;11.35;;;23.00;50.00;;;;;;6196229;28;83467;-63
2021/09/10 00:50:39;;;;;;;18.00;10.80;;;23.00;49.90;;;;;;6175790;28;83060;-63
2021/09/10 00:53:40;;;;;;;18.70;11.35;;;22.90;49.80;;;;;;6177247;28;83553;-65
2021/09/10 00:56:40;;;;;;;20.48;10.98;;;22.90;49.80;;;;;;6180154;28;82932;-65
2021/09/10 00:59:41;;;;;;;18.73;11.13;;;22.90;49.70;;;;;;6179543;28;89874;-64
2021/09/10 01:02:41;;;;;;;21.35;11.57;;;22.90;49.80;;;;;;6178303;28;86043;-64
2021/09/10 01:05:42;;;;;;;18.60;10.40;;;22.90;49.80;;;;;;6174123;28;83044;-64
2021/09/10 01:08:43;;;;;;;21.23;10.70;;;22.80;49.60;;;;;;6180080;28;83037;-63
2021/09/10 01:11:43;;;;;;;19.33;10.98;;;22.90;49.60;;;;;;6178671;28;84069;-63
2021/09/10 01:14:44;;;;;;;18.85;11.00;;;22.80;49.60;;;;;;6178731;28;83401;-63
2021/09/10 01:17:44;;;;;;;18.83;11.05;;;22.80;49.60;;;;;;6177437;28;84834;-63
2021/09/10 01:20:45;;;;;;;19.27;11.18;;;22.80;49.60;;;;;;6179576;28;83042;-63
2021/09/10 01:23:45;;;;;;;18.95;11.27;;;22.80;49.70;;;;;;6177812;28;83742;-63
2021/09/10 01:26:46;;;;;;;19.95;11.82;;;22.80;50.20;;;;;;6183014;28;83268;-64
2021/09/10 01:29:46;;;;;;;18.13;11.20;;;22.80;50.10;;;;;;6178893;28;84283;-64
2021/09/10 01:32:48;;;;;;;15.13;9.57;;;22.70;49.50;;;;;;6178113;28;82874;-64
2021/09/10 01:35:48;;;;;;;18.83;10.85;;;22.70;49.50;;;;;;6186191;28;82961;-64
2021/09/10 01:38:49;;;;;;;26.75;11.25;;;22.70;49.50;;;;;;6189941;28;83415;-63
2021/09/10 01:41:49;;;;;;;17.23;10.30;;;22.70;49.50;;;;;;6178338;28;83207;-63
2021/09/10 01:44:50;;;;;;;17.30;11.13;;;22.70;49.50;;;;;;6167784;28;83993;-62
2021/09/10 01:47:50;;;;;;;18.45;10.80;;;22.70;49.50;;;;;;6179093;28;82899;-62
2021/09/10 01:50:51;;;;;;;19.17;11.63;;;22.60;49.40;;;;;;6176351;28;89274;-63
2021/09/10 01:53:51;;;;;;;15.52;10.05;;;22.60;49.40;;;;;;6191025;28;84048;-63
2021/09/10 01:56:52;;;;;;;16.08;10.30;;;22.60;49.40;;;;;;6178512;28;84016;-63
2021/09/10 01:59:52;;;;;;;17.27;10.05;;;22.60;49.30;;;;;;6172296;28;85292;-63
2021/09/10 02:02:53;;;;;;;13.20;9.48;;;22.60;49.30;;;;;;6186086;28;84566;-64
2021/09/10 02:05:53;;;;;;;18.65;9.57;;;22.60;49.30;;;;;;6181762;28;81674;-64
2021/09/10 02:08:54;;;;;;;17.77;9.52;;;22.60;49.30;;;;;;6197173;28;81543;-64
2021/09/10 02:11:54;;;;;;;16.20;9.80;;;22.60;49.20;;;;;;6181871;28;80593;-64
2021/09/10 02:14:55;;;;;;;13.13;9.13;;;22.60;49.10;;;;;;6183752;28;81456;-64
2021/09/10 02:17:56;;;;;;;18.27;9.73;;;22.60;49.10;;;;;;6198795;28;79982;-64
2021/09/10 02:20:56;;;;;;;14.73;9.48;;;22.60;49.00;;;;;;6197469;28;80751;-64
2021/09/10 02:23:57;;;;;;;17.27;9.60;;;22.60;49.10;;;;;;6194806;28;81135;-64
2021/09/10 02:26:57;;;;;;;14.27;9.63;;;22.60;49.10;;;;;;6181327;28;80541;-64
2021/09/10 02:29:58;;;;;;;15.38;10.05;;;22.60;48.80;;;;;;6193413;28;80182;-64
2021/09/10 02:32:58;;;;;;;14.02;8.70;;;22.60;48.70;;;;;;6177625;28;82893;-64
2021/09/10 02:35:59;;;;;;;12.57;8.73;;;22.70;48.90;;;;;;6182413;28;82796;-65
2021/09/10 02:38:59;;;;;;;17.42;9.38;;;22.70;48.90;;;;;;6198111;28;80532;-64
2021/09/10 02:42:00;;;;;;;16.80;9.27;;;22.70;49.00;;;;;;6192972;28;83068;-64
2021/09/10 02:45:02;;;;;;;16.02;8.73;;;22.70;49.10;;;;;;6194377;28;80354;-63
2021/09/10 02:48:03;;;;;;;18.23;8.77;;;22.70;49.00;;;;;;6198655;28;84786;-63
2021/09/10 02:51:03;;;;;;;19.63;9.35;;;22.70;48.70;;;;;;6180201;28;81431;-63
2021/09/10 02:54:04;;;;;;;14.05;8.77;;;22.70;48.70;;;;;;6181244;28;81651;-63
2021/09/10 02:57:05;;;;;;;14.93;9.43;;;22.60;48.80;;;;;;6176501;28;81355;-64
2021/09/10 03:00:05;;;;;;;17.83;10.00;;;22.60;48.80;;;;;;6180804;28;80867;-63
2021/09/10 03:03:10;;;;;;;18.48;9.93;;;22.50;49.00;;;;;;6193951;28;83739;-64
2021/09/10 03:06:10;;;;;;;16.42;8.63;;;22.50;49.00;;;;;;6202545;28;83424;-63
2021/09/10 03:09:11;;;;;;;14.82;8.52;;;22.50;48.90;;;;;;6191238;28;81810;-64
2021/09/10 03:12:11;;;;;;;14.30;9.07;;;22.50;48.90;;;;;;6181050;28;81500;-64
2021/09/10 03:15:12;;;;;;;13.30;8.60;;;22.50;48.90;;;;;;6179563;28;81542;-63
2021/09/10 03:18:12;;;;;;;14.07;8.45;;;22.40;48.70;;;;;;6181229;28;80519;-63
2021/09/10 03:21:13;;;;;;;11.27;7.63;;;22.40;48.70;;;;;;6201235;28;80123;-63
2021/09/10 03:24:13;;;;;;;15.32;8.02;;;22.50;48.80;;;;;;6196674;28;80504;-63
2021/09/10 03:27:14;;;;;;;12.30;7.47;;;22.50;48.80;;;;;;6187214;28;80458;-63
2021/09/10 03:30:14;;;;;;;11.85;7.90;;;22.50;48.60;;;;;;6190335;28;81014;-63
2021/09/10 03:33:16;;;;;;;13.02;7.60;;;22.50;48.40;;;;;;6185534;28;80293;-63
2021/09/10 03:36:17;;;;;;;12.95;7.57;;;22.50;48.30;;;;;;6193426;28;80506;-63
2021/09/10 03:39:17;;;;;;;11.05;7.13;;;22.40;48.20;;;;;;6188267;28;80830;-64
2021/09/10 03:42:17;;;;;;;12.63;7.53;;;22.50;48.50;;;;;;6179289;28;81433;-64
2021/09/10 03:45:18;;;;;;;14.05;7.47;;;22.60;48.90;;;;;;6186990;28;80469;-64
2021/09/10 03:48:18;;;;;;;11.55;7.50;;;22.70;49.10;;;;;;6201457;28;81447;-64
2021/09/10 03:51:19;;;;;;;10.45;6.78;;;22.70;49.30;;;;;;6182989;28;80839;-64
2021/09/10 03:54:19;;;;;;;12.73;6.32;;;22.80;49.40;;;;;;6193994;28;81868;-65
2021/09/10 03:57:20;;;;;;;10.73;6.30;;;22.80;49.60;;;;;;6185033;28;80710;-63
2021/09/10 04:00:20;;;;;;;13.05;6.00;;;22.90;49.70;;;;;;6197284;28;80925;-63
2021/09/10 04:03:24;;;;;;;12.35;7.00;;;22.90;50.20;;;;;;6185991;28;81547;-65
2021/09/10 04:06:25;;;;;;;9.18;5.97;;;23.00;51.20;;;;;;6186077;28;80482;-66
2021/09/10 04:09:26;;;;;;;19.75;6.35;;;23.00;51.40;;;;;;6190021;28;81539;-65
2021/09/10 04:12:29;;;;;;;16.25;5.50;;;23.10;51.60;;;;;;6177502;28;81563;-65
2021/09/10 04:15:29;;;;;;;13.15;6.15;;;23.10;51.70;;;;;;6196097;28;81047;-65
2021/09/10 04:18:30;;;;;;;15.25;5.78;;;23.00;52.90;;;;;;6183463;28;81849;-65
2021/09/10 04:21:30;;;;;;;12.23;5.78;;;23.10;53.00;;;;;;6180114;28;81088;-65
2021/09/10 04:24:31;;;;;;;13.55;5.32;;;23.20;52.70;;;;;;6160857;28;80255;-65
2021/09/10 04:27:31;;;;;;;10.00;6.22;;;23.20;52.80;;;;;;6177962;28;83734;-64
2021/09/10 04:30:31;;;;;;;9.52;5.20;;;23.20;52.90;;;;;;6182814;28;80432;-64
2021/09/10 04:33:32;;;;;;;12.98;5.53;;;23.20;53.60;;;;;;6182264;28;80481;-65
2021/09/10 04:36:32;;;;;;;11.13;5.57;;;23.20;53.20;;;;;;6182722;28;80398;-64
2021/09/10 04:39:33;;;;;;;9.50;6.53;;;23.30;53.50;;;;;;6184282;28;80342;-65
2021/09/10 04:42:33;;;;;;;12.75;6.13;;;23.30;53.50;;;;;;6181171;28;80159;-65
2021/09/10 04:45:34;;;;;;;7.65;5.55;;;23.30;53.30;;;;;;6184291;28;80651;-65
2021/09/10 04:48:35;;;;;;;11.02;5.78;;;23.30;52.70;;;;;;6184583;28;80751;-65
2021/09/10 04:51:35;;;;;;;9.38;5.65;;;23.40;52.30;;;;;;6176421;28;80374;-63
2021/09/10 04:54:35;;;;;;;8.68;5.72;;;23.40;53.10;;;;;;6180824;28;81421;-66
2021/09/10 04:57:36;;;;;;;12.25;6.20;;;23.40;53.40;;;;;;6186387;28;81815;-64
2021/09/10 05:00:36;;;;;;;8.82;5.82;;;23.40;53.80;;;;;;6198961;28;81387;-65
2021/09/10 05:03:37;;;;;;;14.68;6.45;;;23.30;53.70;;;;;;6189847;28;80660;-65
2021/09/10 05:06:37;;;;;;;11.85;5.88;;;23.40;53.70;;;;;;6184876;28;80463;-65
2021/09/10 05:09:38;;;;;;;12.70;7.68;;;23.40;53.60;;;;;;6183680;28;82490;-66
2021/09/10 05:12:39;;;;;;;13.55;7.30;;;23.40;51.90;;;;;;6172406;28;81931;-65
2021/09/10 05:15:39;;;;;;;12.00;7.40;;;23.40;51.70;;;;;;6177409;28;83286;-65
2021/09/10 05:18:39;;;;;;;14.13;8.32;;;23.30;51.40;;;;;;6172307;28;80376;-65
2021/09/10 05:21:40;;;;;;;15.95;8.82;;;23.30;51.20;;;;;;6172440;28;81219;-65
2021/09/10 05:24:41;;;;;;;16.17;8.70;;;23.30;50.90;;;;;;6175587;28;80440;-65
2021/09/10 05:27:41;;;;;;;15.95;8.68;;;23.30;50.80;;;;;;6184976;28;85924;-65
2021/09/10 05:30:42;;;;;;;16.60;8.57;;;23.20;50.80;;;;;;6178257;28;81440;-65
2021/09/10 05:33:42;;;;;;;15.27;8.73;;;23.20;50.60;;;;;;6177777;28;80574;-65
2021/09/10 05:36:42;;;;;;;14.32;9.43;;;23.20;50.60;;;;;;6179779;28;80971;-65
2021/09/10 05:39:43;;;;;;;22.40;9.70;;;23.20;50.70;;;;;;6177626;28;81878;-67
2021/09/10 05:42:43;;;;;;;16.00;9.52;;;23.20;50.70;;;;;;6179695;28;80882;-65
2021/09/10 05:45:44;;;;;;;18.17;9.75;;;23.20;50.70;;;;;;6180479;28;81006;-65
2021/09/10 05:48:45;;;;;;;18.13;10.50;;;23.20;50.80;;;;;;6179510;28;82331;-65
2021/09/10 05:51:45;;;;;;;16.15;10.10;;;23.20;50.80;;;;;;6177540;28;83384;-65
2021/09/10 05:54:45;;;;;;;19.05;11.13;;;23.20;50.80;;;;;;6184034;28;84359;-65
2021/09/10 05:57:46;;;;;;;22.15;11.13;;;23.20;50.90;;;;;;6178248;28;90144;-65
2021/09/10 06:00:46;;;;;;;21.80;11.30;;;23.20;51.10;;;;;;6173311;28;83354;-65
2021/09/10 06:03:47;;;;;;;21.23;11.40;;;23.20;51.20;;;;;;6171098;28;83000;-65
2021/09/10 06:06:47;;;;;;;23.48;11.80;;;23.20;51.30;;;;;;6172018;28;84156;-66
2021/09/10 06:09:48;;;;;;;25.90;11.93;;;23.20;51.40;;;;;;6171538;28;83936;-66
2021/09/10 06:12:48;;;;;;;21.80;12.52;;;23.20;51.40;;;;;;6176018;28;84408;-65
2021/09/10 06:15:49;;;;;;;22.95;11.45;;;23.20;51.30;;;;;;6179049;28;84844;-66
2021/09/10 06:18:49;;;;;;;20.00;11.32;;;23.20;51.30;;;;;;6177328;28;83536;-66
2021/09/10 06:21:50;;;;;;;23.85;10.98;;;23.30;51.40;;;;;;6174344;28;83324;-65
2021/09/10 06:24:50;;;;;;;22.00;10.77;;;23.30;51.50;;;;;;6178733;28;84040;-65
2021/09/10 06:27:51;;;;;;;19.58;11.18;;;23.30;51.70;;;;;;6174279;28;84352;-66
2021/09/10 06:30:52;;;;;;;20.77;11.23;;;23.30;51.70;;;;;;6168149;28;83561;-65
2021/09/10 06:33:52;;;;;;;19.42;11.27;;;23.30;51.70;;;;;;6168949;28;84492;-65
2021/09/10 06:36:53;;;;;;;21.48;11.25;;;23.30;51.80;;;;;;6175220;28;83221;-65
2021/09/10 06:39:53;;;;;;;26.25;12.02;;;23.30;51.90;;;;;;6180504;28;85883;-67
2021/09/10 06:42:54;;;;;;;22.33;11.68;;;23.40;51.90;;;;;;6178568;28;83319;-65
2021/09/10 06:45:54;;;;;;;20.65;10.48;;;23.40;52.00;;;;;;6181530;28;83701;-65
2021/09/10 06:48:55;;;;;;;19.20;11.30;;;23.40;52.00;;;;;;6181678;28;83022;-65
2021/09/10 06:51:55;;;;;;;18.60;11.35;;;23.40;51.90;;;;;;6183389;28;82888;-65
2021/09/10 06:54:56;;;;;;;21.02;10.75;;;23.40;51.70;;;;;;6186858;28;83518;-65
2021/09/10 06:57:56;;;;;;;19.20;10.18;;;23.40;51.60;;;;;;6176731;28;83665;-67
2021/09/10 07:00:57;;;;;;;25.15;10.05;;;23.40;51.40;;;;;;6173549;28;84280;-66
2021/09/10 07:03:57;;;;;;;13.20;9.43;;;23.40;51.40;;;;;;6175004;28;86230;-66
2021/09/10 07:06:58;;;;;;;13.52;8.05;;;23.40;50.90;;;;;;6176648;28;82983;-66
2021/09/10 07:09:59;;;;;;;17.20;7.80;;;23.40;50.70;;;;;;6171620;28;80245;-66
2021/09/10 07:12:59;;;;;;;14.20;8.43;;;23.40;49.80;;;;;;6179805;28;81767;-66
2021/09/10 07:16:00;;;;;;;16.10;7.03;;;23.40;49.70;;;;;;6179564;28;80779;-66
2021/09/10 07:19:00;;;;;;;15.60;6.95;;;23.50;49.40;;;;;;6179049;28;81943;-65
2021/09/10 07:22:01;;;;;;;14.05;6.15;;;23.50;49.50;;;;;;6184309;28;81301;-66
2021/09/10 07:25:01;;;;;;;10.40;5.80;;;23.50;49.00;;;;;;6174602;28;81447;-66
2021/09/10 07:28:02;;;;;;;9.52;6.05;;;23.50;48.80;;;;;;6172282;28;80496;-66
2021/09/10 07:31:02;;;;;;;11.93;6.47;;;23.50;49.40;;;;;;6179698;28;80933;-66
2021/09/10 07:34:03;;;;;;;11.23;5.57;;;23.60;49.50;;;;;;6184146;28;81363;-66
2021/09/10 07:37:03;;;;;;;8.75;5.78;;;23.50;49.70;;;;;;6183178;28;80866;-66
2021/09/10 07:40:04;;;;;;;10.60;5.43;;;23.60;49.80;;;;;;6172966;28;82055;-67
2021/09/10 07:43:04;;;;;;;10.63;5.97;;;23.60;50.00;;;;;;6183390;28;81100;-66
2021/09/10 07:46:04;;;;;;;11.57;6.85;;;23.60;49.80;;;;;;6182930;28;82255;-66
2021/09/10 07:49:05;;;;;;;9.88;6.45;;;23.70;50.10;;;;;;6183957;28;80530;-65
2021/09/10 07:52:05;;;;;;;14.45;6.40;;;23.70;50.30;;;;;;6182973;28;80253;-65
2021/09/10 07:55:06;;;;;;;12.95;5.82;;;23.70;50.40;;;;;;6181340;28;80373;-65
2021/09/10 07:58:06;;;;;;;12.15;6.45;;;23.60;50.20;;;;;;6177946;28;83089;-65
2021/09/10 08:01:07;;;;;;;8.98;5.80;;;23.70;50.00;;;;;;6183892;28;82567;-65
2021/09/10 08:04:07;;;;;;;10.98;6.25;;;23.70;49.90;;;;;;6182211;28;80280;-65
2021/09/10 08:07:09;;;;;;;19.73;5.68;;;23.70;49.60;;;;;;6172594;28;80539;-65
2021/09/10 08:10:18;;;;;;;16.20;5.15;;;23.80;49.00;;;;;;6166706;28;81898;-66
2021/09/10 08:13:19;;;;;;;14.80;5.32;;;23.80;49.00;;;;;;6165874;28;83442;-65
2021/09/10 08:16:19;;;;;;;11.95;4.88;;;23.80;49.10;;;;;;6186174;28;81220;-66
2021/09/10 08:19:20;;;;;;;13.05;4.97;;;23.80;48.50;;;;;;6193492;28;80299;-65
2021/09/10 08:22:20;;;;;;;6.95;4.40;;;23.90;47.90;;;;;;6185666;28;81303;-65
2021/09/10 08:25:21;;;;;;;8.98;4.55;;;23.90;48.00;;;;;;6187638;28;80938;-66
2021/09/10 08:28:21;;;;;;;9.05;4.90;;;23.90;47.50;;;;;;6184633;28;81276;-66
2021/09/10 08:31:22;;;;;;;7.05;5.15;;;23.90;47.50;;;;;;6179496;28;81497;-66
2021/09/10 08:34:22;;;;;;;9.60;5.28;;;23.90;47.20;;;;;;6180208;28;82101;-65
2021/09/10 08:37:23;;;;;;;12.60;5.20;;;24.00;47.40;;;;;;6180467;28;81290;-65
2021/09/10 08:40:23;;;;;;;10.55;4.90;;;24.00;47.30;;;;;;6174138;28;80821;-67
2021/09/10 08:43:24;;;;;;;12.32;5.22;;;24.00;47.30;;;;;;6179831;28;81555;-66
2021/09/10 08:46:24;;;;;;;7.32;4.75;;;24.00;47.60;;;;;;6183277;28;80693;-66
2021/09/10 08:49:25;;;;;;;7.95;4.40;;;24.00;47.10;;;;;;6190189;28;81654;-65
2021/09/10 08:52:25;;;;;;;8.23;4.80;;;24.10;45.50;;;;;;6182388;28;81912;-65
2021/09/10 08:55:26;;;;;;;9.85;4.63;;;24.10;44.70;;;;;;6174059;28;80021;-65
2021/09/10 08:58:26;;;;;;;5.82;4.35;;;24.20;44.80;;;;;;6183627;28;81206;-65
2021/09/10 09:01:27;;;;;;;7.45;4.35;;;24.20;44.20;;;;;;6175958;28;80780;-65
2021/09/10 09:04:27;;;;;;;13.25;4.82;;;24.30;44.00;;;;;;6184478;28;80432;-66
2021/09/10 09:07:28;;;;;;;7.25;4.32;;;24.30;43.80;;;;;;6184231;28;80797;-65
2021/09/10 09:10:28;;;;;;;9.57;4.70;;;24.40;43.20;;;;;;6181911;28;81802;-66
2021/09/10 09:13:29;;;;;;;9.30;4.47;;;24.40;43.60;;;;;;6180329;28;80503;-65
2021/09/10 09:16:30;;;;;;;6.93;4.35;;;24.40;42.90;;;;;;6183202;28;80531;-65
2021/09/10 09:19:31;;;;;;;10.90;4.80;;;24.40;43.10;;;;;;6183850;28;80178;-65
2021/09/10 09:22:31;;;;;;;9.02;4.90;;;24.50;42.80;;;;;;6181461;28;81271;-65
2021/09/10 09:25:32;;;;;;;10.15;4.65;;;24.50;42.30;;;;;;6180279;28;81699;-64
2021/09/10 09:28:32;;;;;;;8.05;4.68;;;24.50;41.80;;;;;;6178775;28;80574;-65
2021/09/10 09:31:32;;;;;;;10.55;4.32;;;24.60;42.30;;;;;;6177102;28;81284;-64
2021/09/10 09:34:33;;;;;;;7.45;4.72;;;24.70;42.60;;;;;;6179944;28;80502;-65
2021/09/10 09:37:34;;;;;;;7.78;4.70;;;24.70;42.50;;;;;;6178258;28;80906;-65
2021/09/10 09:40:34;;;;;;;8.90;4.72;;;24.70;42.50;;;;;;6182064;28;80566;-65
2021/09/10 09:43:35;;;;;;;8.48;4.20;;;24.70;42.80;;;;;;6163800;28;82191;-65
2021/09/10 09:46:36;;;;;;;9.98;4.60;;;24.80;43.20;;;;;;6159284;28;82342;-67
2021/09/10 09:49:36;;;;;;;6.65;4.65;;;24.80;43.40;;;;;;6180972;28;81566;-66
2021/09/10 09:52:37;;;;;;;10.10;4.10;;;24.90;43.50;;;;;;6182436;28;80498;-68
2021/09/10 09:55:37;;;;;;;7.38;4.45;;;24.90;43.20;;;;;;6179540;28;80598;-66
2021/09/10 09:58:37;;;;;;;16.63;5.15;;;24.90;42.80;;;;;;6182778;28;80585;-66
2021/09/10 10:01:38;;;;;;;11.35;4.70;;;25.00;43.00;;;;;;6179134;28;81099;-65
2021/09/10 10:04:38;;;;;;;10.38;4.72;;;24.90;43.20;;;;;;6178188;28;81457;-65
2021/09/10 10:07:39;;;;;;;9.27;4.55;;;25.00;42.60;;;;;;6184516;28;80432;-65
2021/09/10 10:10:41;;;;;;;9.75;4.80;;;25.00;41.90;;;;;;6178873;28;80443;-65
2021/09/10 10:13:41;;;;;;;13.80;4.53;;;25.00;41.70;;;;;;6181777;28;81855;-65
2021/09/10 10:16:42;;;;;;;16.30;4.63;;;25.10;41.40;;;;;;6180103;28;80592;-65
2021/09/10 10:19:42;;;;;;;8.13;4.35;;;25.10;42.30;;;;;;6174669;28;80360;-65
2021/09/10 10:22:43;;;;;;;10.38;4.35;;;25.20;41.00;;;;;;6178578;28;81002;-65
2021/09/10 10:25:43;;;;;;;5.47;3.90;;;25.20;41.50;;;;;;6173461;28;80690;-65
2021/09/10 10:28:44;;;;;;;7.43;4.35;;;25.20;41.20;;;;;;6178078;28;81902;-65
2021/09/10 10:31:44;;;;;;;7.10;4.38;;;25.20;40.80;;;;;;6185215;28;80755;-65
2021/09/10 10:34:44;;;;;;;9.05;4.43;;;25.20;40.30;;;;;;6172746;28;81430;-65
2021/09/10 10:37:45;;;;;;;8.02;5.32;;;25.30;40.00;;;;;;6180948;28;80996;-65
2021/09/10 10:40:47;;;;;;;10.25;5.35;;;25.30;40.70;;;;;;6180025;28;80380;-65
2021/09/10 10:43:47;;;;;;;7.65;4.40;;;25.30;39.60;;;;;;6179479;28;80356;-65
2021/09/10 10:46:48;;;;;;;16.23;4.63;;;25.30;40.20;;;;;;6179419;28;80346;-66
2021/09/10 10:49:48;;;;;;;12.73;4.82;;;25.40;40.20;;;;;;6181437;28;80751;-66
2021/09/10 10:52:49;;;;;;;9.05;4.55;;;25.40;40.10;;;;;;6180127;28;81520;-67
2021/09/10 10:55:49;;;;;;;4.45;3.40;;;25.40;40.10;;;;;;6184982;28;80808;-65
2021/09/10 10:58:49;;;;;;;8.18;3.92;;;25.50;37.20;;;;;;6177971;28;80645;-65
2021/09/10 11:01:50;;;;;;;5.85;4.03;;;25.50;36.80;;;;;;6184435;28;81650;-64
2021/09/10 11:04:50;;;;;;;7.60;3.97;;;25.50;36.60;;;;;;6176750;28;80723;-67
2021/09/10 11:07:51;;;;;;;6.50;3.95;;;25.50;36.30;;;;;;6170707;28;81256;-65
2021/09/10 11:10:51;;;;;;;6.55;4.07;;;25.60;36.70;;;;;;6182498;28;80501;-65
2021/09/10 11:13:52;;;;;;;7.82;4.07;;;25.60;36.10;;;;;;6171396;28;80971;-65
2021/09/10 11:16:53;;;;;;;8.60;4.15;;;25.60;35.60;;;;;;6165212;28;80848;-65
2021/09/10 11:19:54;;;;;;;7.97;4.22;;;25.70;35.70;;;;;;6170723;28;81122;-66
2021/09/10 11:22:55;;;;;;;7.15;3.88;;;25.70;36.40;;;;;;6176171;28;80502;-65
2021/09/10 11:25:55;;;;;;;9.05;3.63;;;25.70;36.80;;;;;;6181441;28;81318;-67
2021/09/10 11:28:56;;;;;;;11.35;3.40;;;25.80;36.10;;;;;;6185350;28;80416;-65
2021/09/10 11:31:56;;;;;;;6.50;4.20;;;25.80;35.90;;;;;;6186089;28;80394;-65
2021/09/10 11:34:57;;;;;;;9.20;3.80;;;25.90;36.10;;;;;;6177899;28;80334;-65
2021/09/10 11:37:57;;;;;;;5.57;3.47;;;25.90;35.60;;;;;;6185749;28;82106;-65
2021/09/10 11:40:58;;;;;;;6.22;4.15;;;25.90;35.20;;;;;;6192724;28;81421;-65
2021/09/10 11:44:00;;;;;;;6.82;3.78;;;25.90;36.10;;;;;;6194481;28;81631;-66
2021/09/10 11:47:01;;;;;;;7.78;4.47;;;25.90;35.70;;;;;;6194218;28;81240;-64
2021/09/10 11:50:01;;;;;;;6.25;3.63;;;25.90;36.50;;;;;;6185369;28;81216;-65
2021/09/10 11:53:02;;;;;;;5.88;3.85;;;25.90;36.60;;;;;;6181683;28;81491;-65
2021/09/10 11:56:04;;;;;;;8.40;4.15;;;26.00;36.50;;;;;;6182647;28;82838;-65
2021/09/10 11:59:07;;;;;;;6.10;3.75;;;26.00;36.00;;;;;;6185276;28;80500;-65
2021/09/10 12:02:09;;;;;;;8.55;4.55;;;26.00;36.00;;;;;;6183643;28;80787;-65
2021/09/10 12:05:10;;;;;;;5.90;3.53;;;26.00;36.90;;;;;;6181354;28;80287;-65
2021/09/10 12:08:11;;;;;;;7.10;3.47;;;26.10;35.00;;;;;;6185256;28;81353;-65
2021/09/10 12:11:12;;;;;;;6.00;3.25;;;26.00;34.60;;;;;;6179816;28;81946;-65
2021/09/10 12:14:13;;;;;;;4.72;3.75;;;26.00;35.20;;;;;;6183900;28;80485;-64
2021/09/10 12:17:16;;;;;;;5.20;3.42;;;26.10;35.00;;;;;;6182246;28;82111;-65
2021/09/10 12:20:17;;;;;;;10.18;4.10;;;26.10;35.50;;;;;;6180212;28;81622;-65
2021/09/10 12:23:18;;;;;;;5.90;3.75;;;26.10;35.70;;;;;;6185426;28;81303;-66
2021/09/10 12:26:19;;;;;;;5.88;3.60;;;26.10;36.10;;;;;;6180938;28;81474;-67
2021/09/10 12:29:20;;;;;;;7.00;3.88;;;26.30;34.60;;;;;;6183577;28;80185;-67
2021/09/10 12:32:22;;;;;;;5.68;3.88;;;26.30;32.60;;;;;;6173468;28;81778;-65
2021/09/10 12:35:23;;;;;;;8.60;3.75;;;26.30;33.30;;;;;;6189095;28;83139;-65
2021/09/10 12:38:23;;;;;;;37.15;4.72;;;26.20;34.40;;;;;;6179247;28;81490;-67
2021/09/10 12:41:27;;;;;;;8.80;3.78;;;26.20;34.80;;;;;;6180321;28;80535;-67
2021/09/10 12:44:29;;;;;;;16.83;3.72;;;26.10;35.90;;;;;;6172501;28;81414;-64
2021/09/10 12:47:29;;;;;;;6.05;3.70;;;26.10;36.10;;;;;;6165958;28;81480;-66
2021/09/10 12:50:31;;;;;;;7.60;3.45;;;26.10;36.50;;;;;;6175258;28;81296;-65
2021/09/10 12:53:35;;;;;;;7.40;3.67;;;26.10;36.30;;;;;;6186394;28;80493;-65
2021/09/10 12:56:39;;;;;;;6.22;4.15;;;26.20;36.00;;;;;;6194745;28;80314;-66
2021/09/10 12:59:40;;;;;;;10.93;4.43;;;26.10;35.70;;;;;;6179330;28;80134;-66
2021/09/10 13:02:41;;;;;;;8.60;3.88;;;26.20;35.80;;;;;;6201649;28;81354;-66
2021/09/10 13:05:42;;;;;;;9.63;5.25;;;26.20;35.70;;;;;;6180310;28;81340;-65
2021/09/10 13:08:43;;;;;;;6.65;4.07;;;26.20;36.50;;;;;;6189721;28;80352;-66
2021/09/10 13:11:44;;;;;;;9.02;4.25;;;26.20;35.80;;;;;;6175595;28;80419;-65
2021/09/10 13:14:48;;;;;;;9.48;5.25;;;26.10;37.00;;;;;;6181780;28;81040;-65
2021/09/10 13:17:48;;;;;;;7.25;3.67;;;26.10;35.80;;;;;;6190857;28;80883;-65
2021/09/10 13:20:50;;;;;;;9.85;4.60;;;26.10;36.40;;;;;;6190829;28;80231;-66
2021/09/10 13:23:50;;;;;;;9.80;3.92;;;26.20;35.90;;;;;;6177676;28;80414;-65
2021/09/10 13:26:51;;;;;;;6.25;4.35;;;26.20;35.30;;;;;;6173932;28;81248;-66
2021/09/10 13:29:53;;;;;;;6.05;4.28;;;26.20;34.90;;;;;;6184089;28;80550;-66
2021/09/10 13:32:54;;;;;;;8.45;4.70;;;26.20;35.10;;;;;;6176737;28;80744;-65
2021/09/10 13:35:54;;;;;;;6.80;4.38;;;26.20;35.10;;;;;;6188196;28;81019;-66
2021/09/10 13:38:55;;;;;;;5.75;4.07;;;26.10;35.50;;;;;;6180830;28;81610;-66
2021/09/10 13:41:57;;;;;;;5.22;3.97;;;26.10;36.20;;;;;;6183981;28;80407;-66
2021/09/10 13:44:59;;;;;;;12.30;4.40;;;26.10;35.50;;;;;;6186253;28;81708;-65
2021/09/10 13:48:00;;;;;;;5.65;4.05;;;26.10;36.10;;;;;;6178638;28;81682;-65
2021/09/10 13:51:00;;;;;;;5.97;3.90;;;26.00;36.70;;;;;;6181121;28;80992;-65
2021/09/10 13:54:04;;;;;;;10.88;4.35;;;26.00;37.60;;;;;;6178870;28;81524;-64
2021/09/10 13:57:05;;;;;;;9.68;4.38;;;25.90;38.60;;;;;;6186472;28;82462;-66
2021/09/10 14:00:07;;;;;;;9.23;3.97;;;25.80;38.80;;;;;;6194190;28;81456;-64
2021/09/10 14:03:12;;;;;;;12.15;4.45;;;25.80;38.90;;;;;;6177572;28;81399;-65
2021/09/10 14:06:13;;;;;;;15.60;4.45;;;25.80;39.50;;;;;;6182706;28;80684;-65
2021/09/10 14:09:14;;;;;;;10.50;4.80;;;25.80;39.40;;;;;;6176924;28;81987;-64
2021/09/10 14:12:15;;;;;;;9.20;4.43;;;25.80;39.30;;;;;;6172349;28;81088;-65
2021/09/10 14:15:15;;;;;;;7.75;4.28;;;25.70;39.60;;;;;;6180071;28;81179;-66
2021/09/10 14:18:16;;;;;;;7.25;4.07;;;25.70;39.70;;;;;;6178701;28;81104;-65
2021/09/10 14:21:18;;;;;;;6.78;4.15;;;25.70;40.00;;;;;;6189047;28;80723;-64
2021/09/10 14:24:19;;;;;;;6.40;4.53;;;25.60;40.20;;;;;;6191349;28;80121;-65
2021/09/10 14:27:20;;;;;;;6.78;4.20;;;25.60;40.40;;;;;;6180517;28;82309;-66
2021/09/10 14:30:20;;;;;;;5.90;3.83;;;25.60;40.50;;;;;;6180362;28;81503;-65
2021/09/10 14:33:21;;;;;;;7.45;4.53;;;25.60;40.40;;;;;;6181174;28;80461;-65
2021/09/10 14:36:21;;;;;;;13.73;4.63;;;25.60;40.20;;;;;;6167275;28;80847;-67
2021/09/10 14:39:22;;;;;;;11.65;4.55;;;25.60;40.90;;;;;;6169103;28;80581;-65
2021/09/10 14:42:23;;;;;;;7.63;4.88;;;25.60;41.40;;;;;;6178429;28;80293;-66
2021/09/10 14:45:23;;;;;;;7.93;4.82;;;25.60;40.90;;;;;;6176821;28;82052;-66
2021/09/10 14:48:24;;;;;;;6.45;4.60;;;25.60;41.30;;;;;;6182095;28;81608;-66
2021/09/10 14:51:24;;;;;;;7.03;4.95;;;25.70;40.10;;;;;;6191044;28;81150;-69
2021/09/10 14:54:25;;;;;;;7.32;4.38;;;25.70;39.30;;;;;;6180009;28;82339;-66
2021/09/10 14:57:25;;;;;;;9.88;4.57;;;25.70;39.30;;;;;;6177267;28;80611;-65
2021/09/10 15:00:26;;;;;;;9.35;4.88;;;25.70;38.90;;;;;;6187212;28;81127;-62
2021/09/10 15:03:27;;;;;;;8.90;4.63;;;25.70;39.10;;;;;;6197004;28;81479;-63
2021/09/10 15:06:28;;;;;;;11.95;4.45;;;25.70;40.40;;;;;;6182517;28;80530;-66
2021/09/10 15:09:28;;;;;;;5.95;4.60;;;25.70;41.00;;;;;;6183391;28;81305;-69
2021/09/10 15:12:28;;;;;;;9.20;4.82;;;25.70;41.10;;;;;;6194319;28;80724;-63
2021/09/10 15:15:29;;;;;;;8.50;4.88;;;25.60;41.20;;;;;;6191754;28;81980;-64
2021/09/10 15:18:30;;;;;;;9.10;4.40;;;25.60;41.30;;;;;;6174038;28;80902;-67
2021/09/10 15:21:30;;;;;;;11.00;5.10;;;25.60;41.60;;;;;;6182318;28;80946;-66
2021/09/10 15:24:31;;;;;;;8.35;4.80;;;25.60;41.30;;;;;;6179894;28;80874;-66
2021/09/10 15:27:31;;;;;;;8.38;4.97;;;25.50;41.40;;;;;;6184127;28;80642;-64
2021/09/10 15:30:34;;;;;;;12.27;5.05;;;25.50;41.80;;;;;;6186926;28;80086;-64